Pemberville, OH

10:47 PM EDT on October 24, 2014 (GMT -0400)
OHDOT 148-US-6 @ Rt. 23 | Change Station
CLOSE
Current Station
Personal Weather Station
Location: Bradner, OH
Elevation: 684 ft
Nearby Weather Stations

Elev 684 ft 41.34 °N, 83.42 °W | Updated 47 minutes ago

Overcast
Overcast
51 °F
Feels Like 51 °F
N
2
Wind Variable Wind from South
Gusts 4.0 mph

Today
High -- | Low -- °F
--% Chance of Precip.
Yesterday
High -- | Low -- °F
Precip. -- in
7:56 AM 6:39 PM
New Moon, 2% visible
Pressure 30.00 in
Visibility 10.0 miles
Clouds Overcast 4400 ft
Dew Point 47 °F
Humidity 84%
Rainfall -999.00 in
Snow Depth Not available.
UV 0 out of 12
Pollen .80 out of 12
Air Quality Not available.
Flu Activity Sporadic
METAR KTDZ 250153Z AUTO 17003KT 10SM OVC044 11/07 A3000 RMK AO2 SLP158 T01060067 TSNO

More Conditions Fewer Conditions

Pressure 30.00 in
Visibility 10.0 miles
Clouds Overcast 4400 ft
Dew Point 47 °F
Humidity 84%
Rainfall -999.00 in
Snow Depth Not available.
UV 0 out of 12
Pollen .80 out of 12
Air Quality Not available.
Flu Activity Sporadic
METAR KTDZ 250153Z AUTO 17003KT 10SM OVC044 11/07 A3000 RMK AO2 SLP158 T01060067 TSNO

More Conditions Fewer Conditions

10-Day Weather Forecast

Almanac

Astronomy

Oct. 24, 2014 Rise Set
Actual Time 7:56 AM EDT 6:39 PM EDT
Civil Twilight 7:27 AM EDT 7:07 PM EDT
Nautical Twilight 6:55 AM EDT 7:40 PM EDT
Astronomical Twilight 6:23 AM EDT 8:12 PM EDT
Moon 8:34 AM EDT (10/24) 7:18 PM EDT (10/24)
Length of Visible Light 11h 40m
Length of Day
10h 43m
Tomorrow will be 2m 34s shorter.
New Moon, 2% of the Moon is Illuminated
Today
New Moon
Oct 30
First Quarter
Nov 6
Full
Nov 14
Last Quarter
Nov 22
New

Today's Extremes

State Highs State Lows

Community

WunderPhotos

Upload Photos

1,764,760 photos uploaded!

Nearby

Snow Depth

Station Depth Elevation
No new snow has been reported.

Earthquake Activity

City Distance Mag. Time & Date
No recent earthquake activity has been reported nearby.
Minimum magnitude displayed is 2.5.

Coastal Water Temperatures

Place Temperature
Marblehead, OH 53.1 °F

Nearby Weather Stations